createdAt,value
2022-12-05T00:01:00.477Z,0.62
2022-12-05T00:03:27.037Z,0.62
2022-12-05T00:05:53.569Z,0.61
2022-12-05T00:08:20.124Z,0.58
2022-12-05T00:10:46.690Z,0.35
2022-12-05T00:13:13.159Z,0.36
2022-12-05T00:15:40.821Z,0.36
2022-12-05T00:18:07.620Z,0.39
2022-12-05T00:20:34.425Z,0.78
2022-12-05T00:23:01.202Z,0.93
2022-12-05T00:25:27.874Z,0.86
2022-12-05T00:27:54.404Z,0.68
2022-12-05T00:30:20.992Z,0.89
2022-12-05T00:32:47.549Z,0.93
2022-12-05T00:35:14.074Z,0.84
2022-12-05T00:37:40.552Z,0.94
2022-12-05T00:40:07.661Z,0.97
2022-12-05T00:42:34.217Z,0.78
2022-12-05T00:45:00.712Z,0.88
2022-12-05T00:47:27.169Z,1.01
2022-12-05T00:49:53.637Z,0.92
2022-12-05T00:52:20.149Z,1.07
2022-12-05T00:54:46.698Z,1.06
2022-12-05T00:57:13.184Z,0.91
2022-12-05T00:59:40.491Z,0.61
2022-12-05T01:02:07.033Z,0.52
2022-12-05T01:04:33.589Z,0.52
2022-12-05T01:07:00.217Z,0.52
2022-12-05T01:09:27.175Z,0.54
2022-12-05T01:11:53.948Z,0.64
2022-12-05T01:14:22.915Z,0.77
2022-12-05T01:16:51.696Z,0.96
2022-12-05T01:19:25.506Z,0.82
2022-12-05T01:21:52.290Z,0.71
2022-12-05T01:24:20.837Z,0.67
2022-12-05T01:26:47.899Z,0.91
2022-12-05T01:29:16.903Z,0.71
2022-12-05T01:31:43.662Z,0.66
2022-12-05T01:34:13.281Z,0.94
2022-12-05T01:36:40.623Z,1.17
2022-12-05T01:39:08.242Z,1.13
2022-12-05T01:41:37.576Z,0.81
2022-12-05T01:44:06.267Z,1.03
2022-12-05T01:46:38.426Z,1.30
2022-12-05T01:49:27.410Z,1.07
2022-12-05T01:52:01.495Z,0.71
2022-12-05T01:54:29.220Z,0.72
2022-12-05T01:57:04.193Z,0.96
2022-12-05T01:59:34.504Z,1.22
2022-12-05T02:02:01.781Z,1.19
2022-12-05T02:04:28.772Z,1.33
2022-12-05T02:06:55.720Z,1.05
2022-12-05T02:09:23.237Z,0.64
2022-12-05T02:11:58.146Z,0.91
2022-12-05T02:14:30.638Z,0.98
2022-12-05T02:17:19.435Z,0.82
2022-12-05T02:20:05.402Z,0.95
2022-12-05T02:23:18.481Z,0.99
2022-12-05T02:26:01.460Z,0.73
2022-12-05T02:28:57.399Z,0.71
2022-12-05T02:31:37.117Z,0.80
2022-12-05T02:34:25.680Z,0.72
2022-12-05T02:37:01.963Z,0.80
2022-12-05T02:39:31.709Z,1.01
2022-12-05T02:42:01.209Z,0.99
2022-12-05T02:45:02.509Z,1.18
2022-12-05T02:47:33.078Z,0.82
2022-12-05T02:50:00.178Z,0.86
2022-12-05T02:52:30.057Z,0.79
2022-12-05T02:54:57.380Z,0.77
2022-12-05T02:57:26.450Z,0.90
2022-12-05T02:59:53.477Z,1.07
2022-12-05T03:02:31.365Z,1.08
2022-12-05T03:05:09.221Z,1.09
2022-12-05T03:07:37.988Z,1.11
2022-12-05T03:10:08.018Z,1.14
2022-12-05T03:12:42.326Z,1.03
2022-12-05T03:15:24.819Z,0.89
2022-12-05T03:17:57.040Z,0.87
2022-12-05T03:20:29.020Z,0.91
2022-12-05T03:23:00.423Z,0.89
2022-12-05T03:25:46.134Z,0.76
2022-12-05T03:28:27.526Z,0.74
2022-12-05T03:30:57.716Z,0.91
2022-12-05T03:33:28.290Z,0.79
2022-12-05T03:36:03.130Z,0.89
2022-12-05T03:38:51.523Z,1.09
2022-12-05T03:41:32.818Z,1.08
2022-12-05T03:44:42.661Z,0.77
2022-12-05T03:47:20.368Z,0.67
2022-12-05T03:50:00.957Z,0.83
2022-12-05T03:52:50.963Z,0.88
2022-12-05T03:55:26.555Z,0.87
2022-12-05T03:57:59.541Z,0.86
2022-12-05T04:00:30.301Z,0.65
2022-12-05T04:03:10.580Z,0.63
2022-12-05T04:05:49.189Z,0.68
2022-12-05T04:08:30.655Z,0.87
2022-12-05T04:11:06.114Z,0.85
2022-12-05T04:13:37.661Z,0.84
2022-12-05T04:16:29.014Z,0.93
2022-12-05T04:20:12.682Z,0.98
2022-12-05T04:22:40.115Z,0.90
2022-12-05T04:25:28.713Z,0.81
2022-12-05T04:28:28.526Z,0.81
2022-12-05T04:31:05.333Z,0.71
2022-12-05T04:33:44.184Z,0.62
2022-12-05T04:36:10.629Z,0.67
2022-12-05T04:38:43.921Z,0.83
2022-12-05T04:41:22.388Z,0.73
2022-12-05T04:43:52.330Z,0.70
2022-12-05T04:46:22.358Z,0.93
2022-12-05T04:49:02.032Z,0.97
2022-12-05T04:51:34.354Z,0.81
2022-12-05T04:54:15.743Z,0.81
2022-12-05T04:56:45.882Z,1.05
2022-12-05T04:59:12.538Z,0.87
2022-12-05T05:01:45.405Z,0.94
2022-12-05T05:04:16.736Z,1.04
2022-12-05T05:06:43.634Z,1.05
2022-12-05T05:09:10.720Z,1.24
2022-12-05T05:11:37.565Z,1.24
2022-12-05T05:14:04.767Z,1.05
2022-12-05T05:16:38.014Z,0.95
2022-12-05T05:19:05.953Z,1.15
2022-12-05T05:21:35.278Z,1.05
2022-12-05T05:24:02.540Z,1.07
2022-12-05T05:26:30.933Z,0.94
2022-12-05T05:28:58.114Z,0.89
2022-12-05T05:31:25.145Z,1.14
2022-12-05T05:33:54.115Z,1.42
2022-12-05T05:36:23.041Z,1.24
2022-12-05T05:38:52.258Z,1.12
2022-12-05T05:41:24.625Z,1.01
2022-12-05T05:43:51.972Z,0.89
2022-12-05T05:46:20.647Z,1.00
2022-12-05T05:48:47.732Z,1.10
2022-12-05T05:51:16.897Z,1.36
2022-12-05T05:53:43.804Z,1.56
2022-12-05T05:56:21.255Z,1.20
2022-12-05T05:58:54.803Z,1.07
2022-12-05T06:01:21.425Z,1.36
2022-12-05T06:03:48.682Z,1.55
2022-12-05T06:06:15.336Z,1.28
2022-12-05T06:08:44.376Z,1.26
2022-12-05T06:11:12.232Z,1.16
2022-12-05T06:13:39.350Z,1.25
2022-12-05T06:16:10.855Z,1.15
2022-12-05T06:18:37.402Z,1.19
2022-12-05T06:21:11.741Z,1.31
2022-12-05T06:23:42.468Z,1.20
2022-12-05T06:26:14.591Z,1.34
2022-12-05T06:28:41.573Z,1.52
2022-12-05T06:31:16.675Z,1.50
2022-12-05T06:33:43.961Z,1.38
2022-12-05T06:36:12.919Z,1.48
2022-12-05T06:38:42.449Z,1.37
2022-12-05T06:41:24.547Z,1.35
2022-12-05T06:44:01.363Z,1.36
2022-12-05T06:46:28.498Z,1.19
2022-12-05T06:48:57.504Z,1.30
2022-12-05T06:51:24.688Z,1.46
2022-12-05T06:53:51.239Z,1.55
2022-12-05T06:56:19.911Z,1.69
2022-12-05T06:58:48.878Z,1.42
2022-12-05T07:01:39.164Z,1.42
2022-12-05T07:04:15.695Z,1.62
2022-12-05T07:06:50.866Z,1.45
2022-12-05T07:09:23.251Z,1.21
2022-12-05T07:11:51.205Z,1.15
2022-12-05T07:14:45.427Z,1.11
2022-12-05T07:17:05.296Z,1.21
2022-12-05T07:19:31.962Z,1.17
2022-12-05T07:21:58.545Z,1.55
2022-12-05T07:24:25.056Z,1.68
2022-12-05T07:26:51.557Z,1.83
2022-12-05T07:29:18.052Z,1.57
2022-12-05T07:31:44.649Z,1.60
2022-12-05T07:34:11.420Z,1.41
2022-12-05T07:36:37.920Z,1.30
2022-12-05T07:39:04.442Z,1.11
2022-12-05T07:41:33.252Z,1.19
2022-12-05T07:44:05.443Z,1.20
2022-12-05T07:46:32.008Z,1.21
2022-12-05T07:48:58.499Z,1.17
2022-12-05T07:51:25.051Z,1.14
2022-12-05T07:53:51.975Z,1.26
2022-12-05T07:56:18.990Z,1.35
2022-12-05T07:58:47.592Z,1.46
2022-12-05T08:01:15.528Z,1.40
2022-12-05T08:03:42.212Z,1.51
2022-12-05T08:06:15.447Z,1.51
2022-12-05T08:08:42.825Z,1.47
2022-12-05T08:11:13.127Z,1.75
2022-12-05T08:13:40.275Z,1.87
2022-12-05T08:16:10.288Z,1.91
2022-12-05T08:18:37.823Z,1.74
2022-12-05T08:21:04.440Z,1.94
2022-12-05T08:23:31.854Z,2.11
2022-12-05T08:26:05.627Z,1.99
2022-12-05T08:28:32.803Z,1.69
2022-12-05T08:31:11.104Z,1.64
2022-12-05T08:33:37.763Z,1.72
2022-12-05T08:36:07.045Z,1.70
2022-12-05T08:38:34.924Z,2.08
2022-12-05T08:41:06.581Z,1.90
2022-12-05T08:43:33.764Z,1.82
2022-12-05T08:46:00.630Z,1.71
2022-12-05T08:48:29.735Z,1.62
2022-12-05T08:50:57.066Z,1.59
2022-12-05T08:53:23.651Z,1.67
2022-12-05T08:55:50.227Z,1.68
2022-12-05T08:58:16.714Z,1.69
2022-12-05T09:00:43.532Z,1.61
2022-12-05T09:03:11.891Z,1.66
2022-12-05T09:05:38.793Z,1.91
2022-12-05T09:08:05.550Z,1.79
2022-12-05T09:10:32.036Z,2.08
2022-12-05T09:12:58.508Z,1.95
2022-12-05T09:15:25.639Z,2.11
2022-12-05T09:17:52.173Z,2.13
2022-12-05T09:20:18.637Z,2.28
2022-12-05T09:22:45.149Z,2.34
2022-12-05T09:25:11.750Z,2.56
2022-12-05T09:27:38.339Z,2.48
2022-12-05T09:30:06.192Z,2.53
2022-12-05T09:32:32.898Z,2.64
2022-12-05T09:34:59.706Z,2.40
2022-12-05T09:37:41.661Z,2.63
2022-12-05T09:40:17.181Z,2.37
2022-12-05T09:43:06.737Z,2.53
2022-12-05T09:45:43.723Z,2.49
2022-12-05T09:48:15.411Z,2.76
2022-12-05T09:50:50.580Z,2.75
2022-12-05T09:53:27.588Z,2.56
2022-12-05T09:56:09.344Z,2.47
2022-12-05T09:58:53.679Z,2.53
2022-12-05T10:01:42.306Z,2.90
2022-12-05T10:04:27.221Z,2.70
2022-12-05T10:07:13.512Z,2.76
2022-12-05T10:10:27.864Z,2.65
2022-12-05T10:13:25.221Z,2.55
2022-12-05T10:16:00.614Z,2.70
2022-12-05T10:18:42.093Z,2.82
2022-12-05T10:21:08.460Z,2.78
2022-12-05T10:23:58.038Z,2.64
2022-12-05T10:26:30.170Z,2.61
2022-12-05T10:29:18.380Z,2.68
2022-12-05T10:31:47.224Z,2.83
2022-12-05T10:34:33.330Z,2.93
2022-12-05T10:37:08.919Z,2.83
2022-12-05T10:39:35.650Z,2.97
2022-12-05T10:42:03.014Z,3.13
2022-12-05T10:44:29.542Z,3.33
2022-12-05T10:46:56.140Z,3.19
2022-12-05T10:49:24.090Z,3.28
2022-12-05T10:51:50.762Z,3.15
2022-12-05T10:54:22.114Z,2.73
2022-12-05T10:56:50.924Z,2.86
2022-12-05T10:59:26.019Z,2.99
2022-12-05T11:01:56.676Z,2.95
2022-12-05T11:04:43.439Z,2.92
2022-12-05T11:07:24.943Z,3.02
2022-12-05T11:09:51.973Z,2.83
2022-12-05T11:12:25.920Z,2.67
2022-12-05T11:14:57.234Z,2.86
2022-12-05T11:17:38.712Z,2.78
2022-12-05T11:20:20.185Z,2.84
2022-12-05T11:22:49.434Z,2.99
2022-12-05T11:25:28.202Z,2.93
2022-12-05T11:28:00.889Z,3.25
2022-12-05T11:30:29.304Z,3.18
2022-12-05T11:33:22.130Z,3.00
2022-12-05T11:35:50.648Z,3.26
2022-12-05T11:38:19.678Z,3.02
2022-12-05T11:40:52.181Z,3.14
2022-12-05T11:44:12.640Z,3.30
2022-12-05T11:47:00.448Z,3.40
2022-12-05T11:50:14.567Z,3.30
2022-12-05T11:53:05.110Z,3.15
2022-12-05T11:55:44.124Z,3.15
2022-12-05T11:58:32.980Z,3.19
2022-12-05T12:01:04.320Z,3.12
2022-12-05T12:03:34.188Z,3.21
2022-12-05T12:06:28.084Z,3.39
2022-12-05T12:09:31.592Z,3.21
2022-12-05T12:12:03.605Z,3.37
2022-12-05T12:14:50.377Z,3.42
2022-12-05T12:17:51.527Z,3.37
2022-12-05T12:20:41.838Z,3.37
2022-12-05T12:23:11.402Z,3.48
2022-12-05T12:26:08.612Z,3.40
2022-12-05T12:29:07.443Z,3.47
2022-12-05T12:31:55.259Z,3.55
2022-12-05T12:34:34.576Z,3.47
2022-12-05T12:37:16.477Z,3.40
2022-12-05T12:40:12.235Z,3.48
2022-12-05T12:42:50.999Z,3.44
2022-12-05T12:45:30.798Z,3.55
2022-12-05T12:48:09.362Z,3.62
2022-12-05T12:50:44.008Z,3.57
2022-12-05T12:53:44.824Z,3.61
2022-12-05T12:56:36.696Z,3.68
2022-12-05T12:59:09.077Z,3.63
2022-12-05T13:01:59.530Z,3.69
2022-12-05T13:04:47.142Z,3.67
2022-12-05T13:07:20.456Z,3.63
2022-12-05T13:09:57.038Z,3.72
2022-12-05T13:12:29.329Z,3.93
2022-12-05T13:15:00.950Z,3.76
2022-12-05T13:17:30.248Z,3.78
2022-12-05T13:19:57.704Z,3.74
2022-12-05T13:22:27.396Z,3.63
2022-12-05T13:24:54.656Z,3.61
2022-12-05T13:27:24.961Z,3.38
2022-12-05T13:30:01.707Z,3.24
2022-12-05T13:32:38.451Z,3.23
2022-12-05T13:35:07.670Z,3.30
2022-12-05T13:37:53.393Z,3.27
2022-12-05T13:40:43.784Z,3.20
2022-12-05T13:43:13.101Z,3.27
2022-12-05T13:45:41.882Z,3.28
2022-12-05T13:48:20.631Z,3.13
2022-12-05T13:50:59.880Z,3.27
2022-12-05T13:53:32.497Z,3.19
2022-12-05T13:56:06.312Z,3.37
2022-12-05T13:58:32.730Z,3.53
2022-12-05T14:01:27.186Z,3.29
2022-12-05T14:04:02.039Z,3.45
2022-12-05T14:06:38.044Z,3.41
2022-12-05T14:09:28.174Z,3.27
2022-12-05T14:12:20.996Z,3.25
2022-12-05T14:14:56.912Z,3.28
2022-12-05T14:17:25.928Z,3.10
2022-12-05T14:20:15.469Z,3.34
2022-12-05T14:22:48.120Z,3.40
2022-12-05T14:25:30.100Z,3.17
2022-12-05T14:28:11.728Z,3.26
2022-12-05T14:31:15.720Z,3.31
2022-12-05T14:33:42.539Z,3.13
2022-12-05T14:36:16.805Z,3.05
2022-12-05T14:38:44.279Z,3.03
2022-12-05T14:41:35.140Z,3.01
2022-12-05T14:44:08.346Z,3.21
2022-12-05T14:46:35.644Z,3.07
2022-12-05T14:49:44.076Z,2.79
2022-12-05T14:52:24.067Z,2.92
2022-12-05T14:55:00.343Z,2.83
2022-12-05T14:57:28.988Z,2.89
2022-12-05T15:00:02.904Z,2.79
2022-12-05T15:02:37.858Z,3.00
2022-12-05T15:05:27.666Z,3.00
2022-12-05T15:07:56.772Z,2.82
2022-12-05T15:10:35.432Z,2.94
2022-12-05T15:13:12.749Z,2.64
2022-12-05T15:15:39.248Z,2.88
2022-12-05T15:18:20.452Z,2.94
2022-12-05T15:20:58.082Z,3.11
2022-12-05T15:23:45.828Z,2.99
2022-12-05T15:26:47.274Z,2.77
2022-12-05T15:29:20.620Z,2.70
2022-12-05T15:31:50.032Z,2.69
2022-12-05T15:34:29.303Z,2.79
2022-12-05T15:37:06.783Z,2.67
2022-12-05T15:39:55.358Z,2.88
2022-12-05T15:42:30.239Z,2.64
2022-12-05T15:45:11.827Z,2.94
2022-12-05T15:47:38.904Z,2.76
2022-12-05T15:50:06.369Z,2.73
2022-12-05T15:52:41.834Z,2.60
2022-12-05T15:55:14.220Z,2.46
2022-12-05T15:57:50.050Z,2.55
2022-12-05T16:00:18.720Z,2.50
2022-12-05T16:02:53.612Z,2.62
2022-12-05T16:05:25.248Z,2.53
2022-12-05T16:07:53.498Z,2.64
2022-12-05T16:10:23.445Z,2.72
2022-12-05T16:12:53.505Z,2.63
2022-12-05T16:15:27.929Z,2.38
2022-12-05T16:17:57.039Z,2.44
2022-12-05T16:20:35.108Z,2.62
2022-12-05T16:23:22.776Z,2.48
2022-12-05T16:25:49.601Z,2.52
2022-12-05T16:28:18.315Z,2.41
2022-12-05T16:31:17.460Z,2.29
2022-12-05T16:33:44.204Z,2.30
2022-12-05T16:36:12.448Z,2.47
2022-12-05T16:38:44.921Z,2.34
2022-12-05T16:41:15.379Z,2.54
2022-12-05T16:43:44.909Z,2.49
2022-12-05T16:46:11.388Z,2.33
2022-12-05T16:48:38.082Z,2.61
2022-12-05T16:51:13.813Z,2.52
2022-12-05T16:53:42.210Z,2.44
2022-12-05T16:56:15.405Z,2.52
2022-12-05T16:58:41.959Z,2.55
2022-12-05T17:01:18.101Z,2.56
2022-12-05T17:03:45.472Z,2.64
2022-12-05T17:06:12.747Z,2.81
2022-12-05T17:08:39.445Z,2.73
2022-12-05T17:11:07.207Z,2.89
2022-12-05T17:13:33.900Z,2.67
2022-12-05T17:16:00.403Z,2.73
2022-12-05T17:18:31.469Z,2.94
2022-12-05T17:21:01.297Z,2.92
2022-12-05T17:23:27.870Z,3.07
2022-12-05T17:25:56.618Z,3.00
2022-12-05T17:28:24.204Z,2.73
2022-12-05T17:30:50.930Z,2.75
2022-12-05T17:33:19.160Z,2.61
2022-12-05T17:35:45.888Z,2.92
2022-12-05T17:38:12.732Z,2.66
2022-12-05T17:40:39.920Z,2.48
2022-12-05T17:43:06.744Z,2.47
2022-12-05T17:45:33.574Z,2.47
2022-12-05T17:48:00.130Z,2.74
2022-12-05T17:50:27.792Z,2.78
2022-12-05T17:53:02.809Z,2.97
2022-12-05T17:55:32.307Z,3.06
2022-12-05T17:57:58.803Z,2.93
2022-12-05T18:00:25.413Z,2.93
2022-12-05T18:02:52.588Z,2.95
2022-12-05T18:05:19.863Z,2.81
2022-12-05T18:07:47.483Z,2.71
2022-12-05T18:10:17.843Z,2.68
2022-12-05T18:12:44.788Z,2.83
2022-12-05T18:15:12.203Z,3.07
2022-12-05T18:17:39.073Z,3.09
2022-12-05T18:20:07.489Z,2.92
2022-12-05T18:22:33.948Z,2.67
2022-12-05T18:25:03.488Z,2.81
2022-12-05T18:27:30.292Z,2.73
2022-12-05T18:29:56.798Z,2.73
2022-12-05T18:32:23.906Z,2.77
2022-12-05T18:34:50.431Z,2.72
2022-12-05T18:37:18.660Z,2.74
2022-12-05T18:39:45.717Z,2.81
2022-12-05T18:42:15.359Z,2.92
2022-12-05T18:44:42.344Z,2.91
2022-12-05T18:47:09.145Z,3.01
2022-12-05T18:49:35.688Z,2.88
2022-12-05T18:52:02.162Z,3.00
2022-12-05T18:54:28.598Z,2.78
2022-12-05T18:56:55.153Z,2.94
2022-12-05T18:59:22.429Z,3.13
2022-12-05T19:01:49.622Z,2.85
2022-12-05T19:04:18.964Z,2.89
2022-12-05T19:06:49.896Z,2.86
2022-12-05T19:09:18.723Z,3.01
2022-12-05T19:11:47.994Z,2.97
2022-12-05T19:14:16.928Z,2.92
2022-12-05T19:16:43.407Z,2.86
2022-12-05T19:19:13.291Z,2.89
2022-12-05T19:21:40.481Z,3.04
2022-12-05T19:24:08.442Z,3.07
2022-12-05T19:26:35.992Z,3.06
2022-12-05T19:29:02.938Z,3.14
2022-12-05T19:31:30.628Z,3.21
2022-12-05T19:34:00.903Z,2.88
2022-12-05T19:36:35.443Z,2.71
2022-12-05T19:39:07.885Z,2.93
2022-12-05T19:41:34.441Z,2.85
2022-12-05T19:44:01.865Z,3.00
2022-12-05T19:46:30.626Z,2.91
2022-12-05T19:48:59.584Z,3.02
2022-12-05T19:51:26.566Z,2.92
2022-12-05T19:53:53.202Z,3.01
2022-12-05T19:56:22.755Z,2.96
2022-12-05T19:58:52.013Z,2.88
2022-12-05T20:01:22.390Z,2.91
2022-12-05T20:03:54.247Z,3.00
2022-12-05T20:06:21.268Z,3.13
2022-12-05T20:08:48.509Z,3.09
2022-12-05T20:11:17.446Z,3.22
2022-12-05T20:13:47.335Z,3.10
2022-12-05T20:16:18.222Z,3.06
2022-12-05T20:18:45.545Z,3.10
2022-12-05T20:21:13.820Z,3.12
2022-12-05T20:23:40.599Z,3.06
2022-12-05T20:26:12.781Z,3.16
2022-12-05T20:28:39.904Z,3.21
2022-12-05T20:31:07.621Z,3.20
2022-12-05T20:33:35.153Z,3.07
2022-12-05T20:36:10.226Z,3.15
2022-12-05T20:38:36.950Z,3.19
2022-12-05T20:41:06.592Z,3.29
2022-12-05T20:43:33.829Z,3.12
2022-12-05T20:46:20.006Z,3.23
2022-12-05T20:48:47.643Z,3.17
2022-12-05T20:51:22.351Z,3.15
2022-12-05T20:53:49.357Z,3.15
2022-12-05T20:56:19.023Z,2.98
2022-12-05T20:58:48.134Z,3.10
2022-12-05T21:01:15.885Z,3.18
2022-12-05T21:03:43.949Z,3.23
2022-12-05T21:06:13.729Z,3.17
2022-12-05T21:08:40.493Z,3.06
2022-12-05T21:11:07.990Z,3.19
2022-12-05T21:13:35.551Z,3.08
2022-12-05T21:16:07.843Z,3.22
2022-12-05T21:18:34.885Z,3.25
2022-12-05T21:21:04.153Z,3.19
2022-12-05T21:23:30.703Z,3.19
2022-12-05T21:26:05.207Z,3.19
2022-12-05T21:28:32.950Z,3.16
2022-12-05T21:31:11.561Z,3.18
2022-12-05T21:33:39.142Z,3.04
2022-12-05T21:36:07.300Z,3.18
2022-12-05T21:38:34.132Z,3.15
2022-12-05T21:41:01.799Z,3.16
2022-12-05T21:43:28.283Z,3.05
2022-12-05T21:45:55.449Z,3.09
2022-12-05T21:48:24.019Z,3.11
2022-12-05T21:50:50.981Z,3.09
2022-12-05T21:53:18.295Z,3.03
2022-12-05T21:55:45.168Z,2.95
2022-12-05T21:58:11.680Z,3.02
2022-12-05T22:00:38.436Z,3.00
2022-12-05T22:03:05.944Z,3.01
2022-12-05T22:05:33.396Z,3.09
2022-12-05T22:08:04.810Z,3.14
2022-12-05T22:10:37.048Z,3.03
2022-12-05T22:13:04.925Z,3.06
2022-12-05T22:15:31.421Z,3.05
2022-12-05T22:17:57.927Z,2.97
2022-12-05T22:20:24.551Z,3.03
2022-12-05T22:22:51.039Z,3.05
2022-12-05T22:25:17.497Z,2.96
2022-12-05T22:27:43.991Z,2.87
2022-12-05T22:30:10.848Z,2.87
2022-12-05T22:32:37.355Z,2.81
2022-12-05T22:35:04.581Z,2.87
2022-12-05T22:37:31.536Z,2.95
2022-12-05T22:39:58.557Z,2.92
2022-12-05T22:42:27.221Z,2.87
2022-12-05T22:44:53.704Z,2.79
2022-12-05T22:47:20.198Z,2.93
2022-12-05T22:49:46.764Z,2.98
2022-12-05T22:52:13.273Z,3.02
2022-12-05T22:54:39.739Z,2.74
2022-12-05T22:57:06.172Z,2.80
2022-12-05T22:59:33.132Z,2.76
2022-12-05T23:01:59.611Z,2.79
2022-12-05T23:04:26.298Z,2.85
2022-12-05T23:06:52.896Z,2.79
2022-12-05T23:09:20.473Z,2.85
2022-12-05T23:11:50.443Z,2.91
2022-12-05T23:14:16.998Z,2.85
2022-12-05T23:16:43.647Z,2.86
2022-12-05T23:19:10.249Z,2.79
2022-12-05T23:21:39.193Z,2.77
2022-12-05T23:24:11.080Z,2.75
2022-12-05T23:26:43.766Z,2.79
2022-12-05T23:29:12.382Z,2.88
2022-12-05T23:31:39.572Z,2.78
2022-12-05T23:34:06.227Z,2.65
2022-12-05T23:36:34.160Z,2.73
2022-12-05T23:39:01.733Z,2.98
2022-12-05T23:41:28.339Z,2.91
2022-12-05T23:43:54.962Z,2.97
2022-12-05T23:46:24.522Z,2.90
2022-12-05T23:48:51.976Z,2.67
2022-12-05T23:51:19.884Z,2.85
2022-12-05T23:53:47.641Z,2.82
2022-12-05T23:56:16.555Z,2.88
2022-12-05T23:58:43.897Z,2.73
